Terminal Aerodrome Forecast
Issued by NWS Shreveport, LA

Home | Current Version | Previous Version | Text Only | Print | Product List | Glossary On
Versions: 1 2 3 4 5 6 7 8 9 10 11 12 13 14 15 16 17 18 19 20
000
FTUS44 KSHV 201100
TAFTXK
TAF
KTXK 201120Z 2012/2112 00000KT 1SM BR BKN002
      TEMPO 2012/2013 1/4SM FG VV001
     FM201400 VRB03KT 5SM BR BKN020
      TEMPO 2014/2015 2SM BR OVC010
     FM201600 VRB04KT P6SM SCT040
     FM210100 00000KT P6SM SKC=

USA.gov is the U.S. government's official web portal to all federal, state and local government web resources and services.